Time;durP1;ratioP1;P1;durP2;ratioP2;P2;SDS_P1;SDS_P2;PMS_P1;PMS_P2;Temp;Humidity;BMP_temperature;BMP_pressure;BME280_temperature;BME280_humidity;BME280_pressure;Samples;Min_cycle;Max_cycle;Signal;HPM_P1;HPM_P2
2022/09/29 00:01:49;;;;;;;5.88;3.90;;;;;;;;;;5015279;28;20052;-88
2022/09/29 00:04:15;;;;;;;5.63;3.90;;;;;;;;;;5024087;28;20041;-85
2022/09/29 00:06:41;;;;;;;5.60;3.92;;;;;;;;;;5034289;28;20053;-85
2022/09/29 00:09:07;;;;;;;5.30;3.80;;;;;;;;;;5035335;28;20064;-85
2022/09/29 00:11:33;;;;;;;5.82;3.88;;;;;;;;;;5035442;28;20496;-87
2022/09/29 00:13:59;;;;;;;5.28;3.88;;;;;;;;;;5035788;28;20081;-84
2022/09/29 00:16:25;;;;;;;8.00;4.10;;;;;;;;;;5015184;28;20050;-85
2022/09/29 00:18:53;;;;;;;6.35;4.28;;;;;;;;;;5013214;28;20156;-85
2022/09/29 00:21:20;;;;;;;12.57;5.05;;;;;;;;;;5016981;28;20384;-85
2022/09/29 00:23:46;;;;;;;17.10;4.53;;;;;;;;;;5015227;28;20053;-84
2022/09/29 00:26:14;;;;;;;71.43;6.72;;;;;;;;;;5014827;28;20491;-84
2022/09/29 00:28:41;;;;;;;72.60;6.30;;;;;;;;;;5047154;28;20057;-85
2022/09/29 00:31:09;;;;;;;27.73;4.88;;;;;;;;;;5014944;28;20046;-85
2022/09/29 00:33:36;;;;;;;48.28;4.97;;;;;;;;;;5015491;28;20057;-85
2022/09/29 00:36:04;;;;;;;8.10;3.75;;;;;;;;;;5014268;28;20045;-85
2022/09/29 00:38:34;;;;;;;10.07;3.67;;;;;;;;;;5024088;28;20049;-85
2022/09/29 00:41:00;;;;;;;6.38;3.42;;;;;;;;;;5034909;28;20056;-85
2022/09/29 00:43:45;;;;;;;5.13;3.50;;;;;;;;;;5043312;28;20053;-84
2022/09/29 00:46:12;;;;;;;10.82;4.20;;;;;;;;;;5031718;28;20042;-84
2022/09/29 00:48:39;;;;;;;10.73;4.40;;;;;;;;;;5029759;28;20488;-85
2022/09/29 00:51:06;;;;;;;5.75;4.03;;;;;;;;;;5029096;28;20034;-84
2022/09/29 00:53:32;;;;;;;8.77;4.30;;;;;;;;;;5027807;28;20049;-84
2022/09/29 00:56:01;;;;;;;20.95;5.07;;;;;;;;;;5042377;28;20061;-84
2022/09/29 00:58:31;;;;;;;9.77;4.70;;;;;;;;;;5032995;28;20038;-85
2022/09/29 01:00:58;;;;;;;17.30;5.00;;;;;;;;;;5035175;28;20082;-84
2022/09/29 01:03:25;;;;;;;85.07;5.78;;;;;;;;;;5032652;28;20048;-84
2022/09/29 01:05:57;;;;;;;10.60;4.88;;;;;;;;;;5014634;28;20049;-85
2022/09/29 01:08:30;;;;;;;85.38;5.20;;;;;;;;;;5027733;28;20149;-85
2022/09/29 01:10:56;;;;;;;10.23;4.00;;;;;;;;;;5028472;28;20054;-85
2022/09/29 01:13:23;;;;;;;22.23;3.80;;;;;;;;;;5028607;28;20041;-84
2022/09/29 01:15:49;;;;;;;22.58;4.20;;;;;;;;;;5023487;28;20046;-84
2022/09/29 01:18:15;;;;;;;13.82;5.07;;;;;;;;;;5010504;28;20041;-84
2022/09/29 01:20:47;;;;;;;7.90;4.30;;;;;;;;;;5002810;28;20050;-84
2022/09/29 01:23:27;;;;;;;20.10;4.95;;;;;;;;;;5012911;28;20423;-85
2022/09/29 01:26:12;;;;;;;8.60;4.80;;;;;;;;;;5012738;28;20045;-84
2022/09/29 01:28:38;;;;;;;8.80;5.00;;;;;;;;;;5014660;28;20451;-84
2022/09/29 01:31:23;;;;;;;19.55;5.15;;;;;;;;;;5015034;28;20053;-84
2022/09/29 01:33:56;;;;;;;28.00;5.32;;;;;;;;;;4998741;28;20046;-84
2022/09/29 01:36:35;;;;;;;69.72;4.25;;;;;;;;;;5001999;28;20046;-84
2022/09/29 01:39:01;;;;;;;78.35;4.60;;;;;;;;;;5028646;28;20037;-84
2022/09/29 01:41:27;;;;;;;25.23;3.40;;;;;;;;;;5034610;28;20061;-83
2022/09/29 01:43:56;;;;;;;114.72;5.43;;;;;;;;;;5008918;28;20050;-83
2022/09/29 01:46:31;;;;;;;5.93;3.50;;;;;;;;;;5035634;28;20463;-84
2022/09/29 01:48:58;;;;;;;24.17;4.22;;;;;;;;;;5045669;28;20046;-83
2022/09/29 01:51:49;;;;;;;27.70;4.25;;;;;;;;;;5012020;28;20042;-84
2022/09/29 01:54:19;;;;;;;32.80;4.25;;;;;;;;;;5000148;28;20100;-84
2022/09/29 01:56:52;;;;;;;29.23;4.50;;;;;;;;;;5002555;28;20411;-84
2022/09/29 01:59:22;;;;;;;28.13;4.45;;;;;;;;;;5011923;28;20121;-85
2022/09/29 02:01:51;;;;;;;166.23;7.47;;;;;;;;;;5013502;28;20041;-84
2022/09/29 02:04:17;;;;;;;74.10;5.63;;;;;;;;;;5020033;28;20046;-84
2022/09/29 02:06:47;;;;;;;18.13;4.00;;;;;;;;;;5006246;28;20054;-84
2022/09/29 02:09:17;;;;;;;13.98;3.97;;;;;;;;;;5011355;28;20499;-85
2022/09/29 02:11:43;;;;;;;10.60;3.05;;;;;;;;;;5011905;28;20256;-84
2022/09/29 02:14:10;;;;;;;13.35;3.63;;;;;;;;;;5011433;28;20077;-84
2022/09/29 02:16:40;;;;;;;16.08;4.00;;;;;;;;;;5007871;28;20089;-84
2022/09/29 02:19:09;;;;;;;40.72;4.68;;;;;;;;;;5006521;28;20045;-84
2022/09/29 02:21:36;;;;;;;29.25;5.03;;;;;;;;;;5012073;28;20042;-84
2022/09/29 02:24:02;;;;;;;26.90;4.47;;;;;;;;;;5005885;28;20425;-85
2022/09/29 02:26:29;;;;;;;55.03;5.50;;;;;;;;;;5011901;28;20041;-84
2022/09/29 02:28:55;;;;;;;44.92;5.50;;;;;;;;;;5012713;28;20045;-84
2022/09/29 02:31:22;;;;;;;31.38;5.03;;;;;;;;;;5012467;28;20103;-84
2022/09/29 02:33:48;;;;;;;14.82;4.40;;;;;;;;;;5012087;28;20424;-84
2022/09/29 02:36:14;;;;;;;18.63;4.57;;;;;;;;;;5043150;28;20488;-83
2022/09/29 02:38:59;;;;;;;23.23;5.03;;;;;;;;;;5011632;28;20046;-84
2022/09/29 02:41:32;;;;;;;23.83;5.10;;;;;;;;;;5012794;28;20100;-85
2022/09/29 02:43:58;;;;;;;16.10;4.60;;;;;;;;;;4995337;28;20088;-84
2022/09/29 02:46:46;;;;;;;21.02;4.07;;;;;;;;;;5011325;28;20046;-84
2022/09/29 02:49:22;;;;;;;79.05;5.82;;;;;;;;;;5009744;28;20069;-85
2022/09/29 02:51:51;;;;;;;96.60;5.80;;;;;;;;;;5012309;28;20046;-85
2022/09/29 02:54:53;;;;;;;94.03;5.10;;;;;;;;;;5006965;28;20050;-83
2022/09/29 02:57:37;;;;;;;75.47;4.53;;;;;;;;;;4989413;28;20038;-83
2022/09/29 03:00:07;;;;;;;57.30;4.28;;;;;;;;;;4990277;28;20089;-84
2022/09/29 03:02:34;;;;;;;53.28;4.75;;;;;;;;;;4974059;28;20185;-85
2022/09/29 03:05:01;;;;;;;85.47;5.57;;;;;;;;;;4989952;28;20050;-84
2022/09/29 03:07:27;;;;;;;64.70;4.95;;;;;;;;;;4988153;28;20046;-84
2022/09/29 03:09:53;;;;;;;38.40;4.40;;;;;;;;;;4990533;28;20126;-84
2022/09/29 03:12:19;;;;;;;49.45;5.00;;;;;;;;;;4988730;28;20053;-84
2022/09/29 03:14:45;;;;;;;24.77;4.82;;;;;;;;;;4988472;28;20049;-84
2022/09/29 03:17:11;;;;;;;42.53;5.18;;;;;;;;;;4989025;28;20054;-84
2022/09/29 03:19:38;;;;;;;32.35;4.78;;;;;;;;;;4993815;28;20077;-84
2022/09/29 03:22:04;;;;;;;24.10;5.40;;;;;;;;;;4993728;28;20058;-84
2022/09/29 03:24:30;;;;;;;39.10;5.75;;;;;;;;;;4987491;28;20054;-84
2022/09/29 03:26:56;;;;;;;66.40;6.32;;;;;;;;;;4976144;28;20038;-84
2022/09/29 03:29:22;;;;;;;55.58;6.53;;;;;;;;;;4999346;28;20560;-84
2022/09/29 03:31:48;;;;;;;60.83;7.38;;;;;;;;;;4995671;28;20086;-84
2022/09/29 03:34:14;;;;;;;73.45;7.63;;;;;;;;;;5011017;28;20042;-84
2022/09/29 03:36:40;;;;;;;103.90;8.45;;;;;;;;;;5014927;28;20046;-84
2022/09/29 03:39:07;;;;;;;116.38;8.63;;;;;;;;;;5002587;28;20085;-83
2022/09/29 03:41:33;;;;;;;112.30;8.27;;;;;;;;;;5013259;28;20484;-84
2022/09/29 03:43:59;;;;;;;101.93;7.53;;;;;;;;;;5014555;28;20042;-85
2022/09/29 03:46:25;;;;;;;124.18;8.23;;;;;;;;;;5011218;28;20160;-84
2022/09/29 03:48:51;;;;;;;81.63;7.18;;;;;;;;;;5046903;28;20463;-83
2022/09/29 03:51:17;;;;;;;64.38;6.60;;;;;;;;;;5006322;28;20113;-84
2022/09/29 03:53:43;;;;;;;50.92;6.72;;;;;;;;;;5002582;28;20049;-84
2022/09/29 03:56:09;;;;;;;56.63;7.40;;;;;;;;;;5009677;28;20515;-83
2022/09/29 03:58:35;;;;;;;30.75;7.30;;;;;;;;;;5012456;28;20045;-84
2022/09/29 04:01:01;;;;;;;61.50;7.97;;;;;;;;;;5035449;28;20043;-84
2022/09/29 04:03:28;;;;;;;41.97;7.07;;;;;;;;;;5010830;28;20561;-84
2022/09/29 04:05:54;;;;;;;62.00;7.90;;;;;;;;;;5015070;28;20140;-83
2022/09/29 04:08:20;;;;;;;43.70;7.35;;;;;;;;;;5014368;28;20081;-85
2022/09/29 04:10:47;;;;;;;43.28;8.00;;;;;;;;;;5014654;28;20575;-85
2022/09/29 04:13:13;;;;;;;50.28;7.90;;;;;;;;;;5014890;28;20066;-84
2022/09/29 04:15:39;;;;;;;59.33;8.35;;;;;;;;;;5006739;28;20057;-84
2022/09/29 04:18:05;;;;;;;54.08;7.50;;;;;;;;;;5010904;28;20721;-84
2022/09/29 04:20:31;;;;;;;45.50;7.50;;;;;;;;;;5012822;28;20061;-83
2022/09/29 04:22:58;;;;;;;30.98;6.97;;;;;;;;;;5005477;28;20064;-83
2022/09/29 04:25:24;;;;;;;40.17;6.80;;;;;;;;;;5038977;28;20050;-84
2022/09/29 04:27:50;;;;;;;41.50;6.45;;;;;;;;;;5012425;28;20061;-84
2022/09/29 04:30:17;;;;;;;28.08;6.15;;;;;;;;;;5008014;28;20041;-85
2022/09/29 04:32:43;;;;;;;43.08;7.00;;;;;;;;;;5012442;28;20058;-84
2022/09/29 04:35:09;;;;;;;25.05;6.63;;;;;;;;;;5005958;28;20049;-84
2022/09/29 04:37:35;;;;;;;17.58;6.75;;;;;;;;;;5014703;28;20042;-84
2022/09/29 04:40:02;;;;;;;20.40;7.00;;;;;;;;;;5014597;28;20042;-84
2022/09/29 04:42:28;;;;;;;26.63;7.47;;;;;;;;;;5010573;28;20050;-85
2022/09/29 04:44:54;;;;;;;51.72;7.45;;;;;;;;;;5012908;28;20053;-85
2022/09/29 04:47:20;;;;;;;41.63;7.60;;;;;;;;;;5011675;28;20033;-84
2022/09/29 04:49:46;;;;;;;43.38;7.85;;;;;;;;;;5045793;28;20045;-84
2022/09/29 04:52:13;;;;;;;99.75;9.88;;;;;;;;;;5011900;28;20424;-84
2022/09/29 04:54:39;;;;;;;107.35;10.95;;;;;;;;;;5002127;28;20488;-83
2022/09/29 04:57:05;;;;;;;127.10;10.23;;;;;;;;;;5009137;28;20077;-84
2022/09/29 04:59:31;;;;;;;195.60;12.68;;;;;;;;;;5012445;28;20124;-84
2022/09/29 05:01:58;;;;;;;127.70;10.10;;;;;;;;;;5012041;28;20525;-84
2022/09/29 05:04:24;;;;;;;85.32;9.73;;;;;;;;;;5013679;28;20048;-85
2022/09/29 05:06:50;;;;;;;91.63;9.77;;;;;;;;;;5012537;28;20042;-84
2022/09/29 05:09:16;;;;;;;59.28;8.98;;;;;;;;;;4995147;28;20085;-84
2022/09/29 05:11:42;;;;;;;69.00;9.80;;;;;;;;;;5004394;28;20046;-84
2022/09/29 05:14:09;;;;;;;98.85;10.90;;;;;;;;;;5012580;28;20121;-83
2022/09/29 05:16:36;;;;;;;101.13;10.43;;;;;;;;;;5008879;28;20057;-85
2022/09/29 05:19:02;;;;;;;132.43;12.43;;;;;;;;;;5012149;28;20536;-84
2022/09/29 05:21:28;;;;;;;103.07;10.57;;;;;;;;;;5011654;28;20077;-85
2022/09/29 05:23:54;;;;;;;72.30;9.20;;;;;;;;;;5007399;28;20049;-85
2022/09/29 05:26:20;;;;;;;62.03;8.48;;;;;;;;;;5002898;28;20034;-85
2022/09/29 05:28:47;;;;;;;96.28;10.90;;;;;;;;;;5007981;28;20046;-84
2022/09/29 05:31:14;;;;;;;71.72;9.48;;;;;;;;;;5011036;28;20176;-84
2022/09/29 05:33:40;;;;;;;85.45;9.40;;;;;;;;;;5012295;28;20045;-84
2022/09/29 05:36:10;;;;;;;97.32;11.20;;;;;;;;;;5011723;28;20177;-85
2022/09/29 05:38:37;;;;;;;63.10;8.70;;;;;;;;;;5004446;28;20483;-85
2022/09/29 05:41:04;;;;;;;49.30;9.25;;;;;;;;;;5011125;28;20141;-84
2022/09/29 05:43:30;;;;;;;46.17;8.82;;;;;;;;;;5012490;28;20480;-85
2022/09/29 05:46:03;;;;;;;83.80;9.65;;;;;;;;;;4996848;28;20093;-85
2022/09/29 05:48:29;;;;;;;110.95;11.23;;;;;;;;;;5007261;28;20391;-85
2022/09/29 05:50:56;;;;;;;88.50;11.23;;;;;;;;;;5012887;28;20168;-85
2022/09/29 05:53:22;;;;;;;97.70;11.35;;;;;;;;;;5009695;28;20208;-85
2022/09/29 05:55:48;;;;;;;97.38;11.73;;;;;;;;;;5000840;28;20041;-84
2022/09/29 05:58:14;;;;;;;121.65;12.75;;;;;;;;;;4991084;28;20500;-84
2022/09/29 06:00:40;;;;;;;50.75;11.48;;;;;;;;;;5001872;28;20058;-85
2022/09/29 06:03:06;;;;;;;48.80;11.25;;;;;;;;;;5013170;28;20042;-85
2022/09/29 06:05:32;;;;;;;23.90;10.27;;;;;;;;;;5010602;28;20129;-85
2022/09/29 06:08:02;;;;;;;58.50;11.73;;;;;;;;;;5010834;28;21259;-84
2022/09/29 06:10:31;;;;;;;38.40;11.68;;;;;;;;;;5012385;28;20116;-84
2022/09/29 06:12:57;;;;;;;34.83;11.80;;;;;;;;;;4995573;28;20089;-84
2022/09/29 06:15:23;;;;;;;54.47;12.82;;;;;;;;;;5000388;28;20046;-84
2022/09/29 06:17:59;;;;;;;65.72;12.77;;;;;;;;;;5011289;28;20527;-84
2022/09/29 06:20:26;;;;;;;43.97;11.50;;;;;;;;;;5012994;28;20042;-86
2022/09/29 06:22:55;;;;;;;61.33;11.48;;;;;;;;;;5010218;28;20519;-84
2022/09/29 06:25:22;;;;;;;54.92;12.65;;;;;;;;;;5001888;28;20133;-86
2022/09/29 06:27:48;;;;;;;78.63;11.95;;;;;;;;;;5007423;28;20050;-85
2022/09/29 06:30:14;;;;;;;78.50;11.85;;;;;;;;;;5006217;28;20093;-85
2022/09/29 06:32:40;;;;;;;104.50;13.32;;;;;;;;;;5008378;28;20108;-85
2022/09/29 06:37:54;;;;;;;76.32;12.85;;;;;;;;;;5009583;28;20045;-86
2022/09/29 06:40:20;;;;;;;110.68;13.10;;;;;;;;;;5004844;28;20108;-85
2022/09/29 06:42:47;;;;;;;127.70;15.50;;;;;;;;;;5008342;28;20046;-85
2022/09/29 06:45:13;;;;;;;114.57;13.50;;;;;;;;;;5013498;28;20112;-86
2022/09/29 06:47:39;;;;;;;70.75;11.90;;;;;;;;;;4993754;28;20046;-83
2022/09/29 06:50:06;;;;;;;97.68;14.23;;;;;;;;;;5010567;28;20049;-85
2022/09/29 06:52:32;;;;;;;93.70;13.90;;;;;;;;;;5018643;28;20044;-85
2022/09/29 06:54:58;;;;;;;72.10;13.48;;;;;;;;;;5036678;28;20037;-84
2022/09/29 06:57:24;;;;;;;61.45;13.18;;;;;;;;;;5017029;28;20065;-84
2022/09/29 06:59:51;;;;;;;48.78;10.93;;;;;;;;;;5015509;28;20046;-84
2022/09/29 07:02:17;;;;;;;33.70;10.73;;;;;;;;;;5016160;28;20053;-85
2022/09/29 07:04:43;;;;;;;65.65;12.63;;;;;;;;;;5014541;28;20041;-84
2022/09/29 07:07:09;;;;;;;45.60;11.88;;;;;;;;;;5027891;28;20491;-84
2022/09/29 07:09:35;;;;;;;55.17;12.23;;;;;;;;;;5013085;28;20054;-84
2022/09/29 07:12:01;;;;;;;30.33;12.32;;;;;;;;;;5014207;28;20050;-84
2022/09/29 07:14:27;;;;;;;44.42;13.02;;;;;;;;;;5015606;28;20050;-83
2022/09/29 07:16:54;;;;;;;29.00;12.77;;;;;;;;;;5017111;28;20068;-84
2022/09/29 07:19:20;;;;;;;29.65;12.93;;;;;;;;;;5022750;28;20038;-83
2022/09/29 07:21:47;;;;;;;17.60;13.05;;;;;;;;;;5031352;28;20052;-84
2022/09/29 07:24:13;;;;;;;16.70;13.70;;;;;;;;;;5017767;28;20053;-84
2022/09/29 07:26:39;;;;;;;15.85;14.15;;;;;;;;;;5010114;28;20042;-84
2022/09/29 07:29:05;;;;;;;16.25;14.55;;;;;;;;;;5016018;28;20041;-85
2022/09/29 07:31:31;;;;;;;16.17;14.55;;;;;;;;;;5017207;28;20092;-84
2022/09/29 07:33:57;;;;;;;16.80;14.23;;;;;;;;;;5013913;28;20054;-84
2022/09/29 07:36:24;;;;;;;16.63;14.85;;;;;;;;;;5009867;28;20246;-84
2022/09/29 07:38:50;;;;;;;13.75;12.35;;;;;;;;;;5014682;28;20045;-83
2022/09/29 07:41:19;;;;;;;16.08;12.68;;;;;;;;;;5021052;28;20046;-84
2022/09/29 07:43:45;;;;;;;14.80;13.23;;;;;;;;;;5014832;28;20500;-83
2022/09/29 07:46:11;;;;;;;16.55;13.45;;;;;;;;;;5013775;28;20037;-83
2022/09/29 07:48:38;;;;;;;17.20;14.68;;;;;;;;;;5014596;28;20034;-84
2022/09/29 07:51:08;;;;;;;17.05;13.68;;;;;;;;;;5011423;28;20411;-84
2022/09/29 07:53:35;;;;;;;16.73;14.98;;;;;;;;;;5008511;28;20053;-84
2022/09/29 07:56:03;;;;;;;15.77;14.02;;;;;;;;;;5012932;28;20415;-85
2022/09/29 07:58:31;;;;;;;16.42;14.68;;;;;;;;;;5017574;28;20052;-84
2022/09/29 08:00:57;;;;;;;16.60;14.90;;;;;;;;;;5013099;28;20416;-86
2022/09/29 08:03:24;;;;;;;16.92;15.10;;;;;;;;;;5015807;28;20046;-86
2022/09/29 08:05:51;;;;;;;16.67;14.98;;;;;;;;;;5015401;28;20116;-85
2022/09/29 08:08:17;;;;;;;17.13;15.10;;;;;;;;;;5015620;28;20096;-87
2022/09/29 08:10:43;;;;;;;17.40;15.32;;;;;;;;;;5015191;28;20058;-87
2022/09/29 08:13:09;;;;;;;17.60;15.80;;;;;;;;;;5022554;28;20474;-86
2022/09/29 08:15:35;;;;;;;15.40;13.80;;;;;;;;;;5014599;28;20099;-86
2022/09/29 08:18:01;;;;;;;16.83;15.13;;;;;;;;;;5013161;28;20143;-85
2022/09/29 08:20:27;;;;;;;17.80;15.75;;;;;;;;;;5012983;28;20077;-84
2022/09/29 08:22:55;;;;;;;17.65;15.75;;;;;;;;;;5013143;28;20159;-85
2022/09/29 08:25:21;;;;;;;19.70;15.73;;;;;;;;;;5011430;28;20050;-85
2022/09/29 08:27:47;;;;;;;20.05;17.92;;;;;;;;;;5012167;28;20403;-84
2022/09/29 08:30:13;;;;;;;18.10;15.95;;;;;;;;;;5014081;28;20045;-85
2022/09/29 08:32:39;;;;;;;18.10;14.88;;;;;;;;;;5012249;28;20089;-85
2022/09/29 08:35:06;;;;;;;16.08;14.38;;;;;;;;;;5015049;28;20070;-84
2022/09/29 08:37:32;;;;;;;18.08;15.68;;;;;;;;;;5014775;28;20049;-85
2022/09/29 08:39:58;;;;;;;18.77;16.70;;;;;;;;;;5014766;28;20041;-86
2022/09/29 08:42:33;;;;;;;18.80;15.38;;;;;;;;;;5029239;28;20100;-86
2022/09/29 08:45:06;;;;;;;16.17;13.70;;;;;;;;;;5015506;28;20096;-85
2022/09/29 08:47:37;;;;;;;15.43;13.30;;;;;;;;;;5014755;28;20041;-85
2022/09/29 08:50:24;;;;;;;17.35;14.18;;;;;;;;;;5013711;28;20057;-86
2022/09/29 08:52:53;;;;;;;15.52;12.18;;;;;;;;;;5014714;28;20050;-85
2022/09/29 08:55:22;;;;;;;16.45;14.57;;;;;;;;;;5017731;28;20038;-85
2022/09/29 08:57:57;;;;;;;16.33;14.63;;;;;;;;;;5032529;28;20042;-85
2022/09/29 09:00:28;;;;;;;16.48;14.77;;;;;;;;;;5026524;28;20077;-86
2022/09/29 09:03:17;;;;;;;16.00;14.05;;;;;;;;;;5001171;28;20444;-86
2022/09/29 09:05:57;;;;;;;15.60;13.60;;;;;;;;;;5013038;28;20065;-86
2022/09/29 09:08:35;;;;;;;17.17;13.40;;;;;;;;;;5014411;28;20041;-85
2022/09/29 09:11:20;;;;;;;13.02;11.55;;;;;;;;;;5025268;28;20042;-85
2022/09/29 09:14:06;;;;;;;14.65;11.25;;;;;;;;;;5029259;28;20045;-85
2022/09/29 09:16:32;;;;;;;13.98;11.52;;;;;;;;;;4994506;28;20120;-85
2022/09/29 09:19:17;;;;;;;12.63;11.32;;;;;;;;;;4994362;28;20042;-85
2022/09/29 09:21:46;;;;;;;13.95;11.63;;;;;;;;;;4994206;28;20038;-85
2022/09/29 09:24:18;;;;;;;11.93;9.82;;;;;;;;;;5007309;28;20068;-85
2022/09/29 09:26:45;;;;;;;13.30;11.27;;;;;;;;;;5013789;28;20575;-86
2022/09/29 09:29:14;;;;;;;12.98;11.18;;;;;;;;;;5014032;28;20092;-84
2022/09/29 09:31:46;;;;;;;13.45;12.10;;;;;;;;;;5013874;28;20096;-85
2022/09/29 09:34:28;;;;;;;12.05;10.55;;;;;;;;;;5028959;28;20057;-85
2022/09/29 09:36:57;;;;;;;11.93;10.73;;;;;;;;;;5013996;28;20045;-86
2022/09/29 09:39:32;;;;;;;12.32;9.93;;;;;;;;;;5030155;28;20042;-85
2022/09/29 09:42:01;;;;;;;12.82;11.52;;;;;;;;;;5033455;28;20123;-84
2022/09/29 09:44:34;;;;;;;12.80;11.50;;;;;;;;;;5015842;28;20085;-85
2022/09/29 09:47:03;;;;;;;12.30;11.10;;;;;;;;;;5013905;28;20049;-84
2022/09/29 09:49:32;;;;;;;11.93;10.68;;;;;;;;;;5013542;28;20042;-85
2022/09/29 09:52:03;;;;;;;12.00;10.48;;;;;;;;;;5013613;28;20495;-85
2022/09/29 09:54:37;;;;;;;12.82;10.32;;;;;;;;;;4993914;28;20072;-85
2022/09/29 09:57:09;;;;;;;11.50;9.55;;;;;;;;;;4993650;28;20452;-85
2022/09/29 10:00:10;;;;;;;11.00;9.68;;;;;;;;;;4993845;28;20112;-84
2022/09/29 10:02:47;;;;;;;10.93;8.65;;;;;;;;;;4952852;29;20424;-84
2022/09/29 10:05:15;;;;;;;9.52;8.32;;;;;;;;;;4952990;29;20058;-84
2022/09/29 10:07:41;;;;;;;11.43;7.10;;;;;;;;;;4965677;28;20050;-86
2022/09/29 10:10:14;;;;;;;9.63;6.82;;;;;;;;;;4989898;28;20051;-84
2022/09/29 10:12:40;;;;;;;8.60;5.95;;;;;;;;;;4990937;28;20046;-86
2022/09/29 10:15:21;;;;;;;8.40;6.00;;;;;;;;;;4971890;28;20054;-85
2022/09/29 10:17:50;;;;;;;9.85;7.57;;;;;;;;;;4971687;28;20513;-85
2022/09/29 10:20:28;;;;;;;14.80;7.93;;;;;;;;;;4974510;28;20122;-84
2022/09/29 10:22:58;;;;;;;9.45;6.38;;;;;;;;;;5005217;28;20094;-84
2022/09/29 10:25:24;;;;;;;9.93;6.40;;;;;;;;;;5010741;28;20048;-85
2022/09/29 10:27:52;;;;;;;9.00;5.65;;;;;;;;;;4992759;28;20182;-84
2022/09/29 10:30:21;;;;;;;8.88;6.38;;;;;;;;;;4975624;28;20062;-84
2022/09/29 10:32:47;;;;;;;7.10;5.40;;;;;;;;;;4977309;28;20082;-84
2022/09/29 10:35:16;;;;;;;7.50;5.32;;;;;;;;;;4983891;28;20050;-84
2022/09/29 10:37:45;;;;;;;7.95;6.55;;;;;;;;;;5030631;28;20100;-84
2022/09/29 10:40:17;;;;;;;8.45;6.40;;;;;;;;;;5013751;28;20042;-84
2022/09/29 10:42:44;;;;;;;;;;;;;;;;;;5013949;28;20056;-84
2022/09/29 10:45:16;;;;;;;9.60;6.35;;;;;;;;;;5012869;28;19956;-84
2022/09/29 10:48:05;;;;;;;8.23;6.03;;;;;;;;;;5025179;28;20049;-85
2022/09/29 10:50:34;;;;;;;9.57;5.60;;;;;;;;;;5032792;28;20541;-85
2022/09/29 10:53:03;;;;;;;7.18;4.78;;;;;;;;;;5032938;28;20602;-85
2022/09/29 10:55:30;;;;;;;6.43;4.35;;;;;;;;;;5032933;28;20085;-84
2022/09/29 10:57:57;;;;;;;8.20;5.03;;;;;;;;;;5032786;28;20049;-84
2022/09/29 11:00:25;;;;;;;7.40;4.63;;;;;;;;;;5033137;28;20064;-84
2022/09/29 11:02:52;;;;;;;7.07;4.57;;;;;;;;;;5030903;28;20099;-84
2022/09/29 11:05:22;;;;;;;7.05;4.07;;;;;;;;;;5006266;28;20052;-83
2022/09/29 11:07:49;;;;;;;5.82;3.65;;;;;;;;;;5001872;28;20065;-84
2022/09/29 11:10:35;;;;;;;5.95;4.30;;;;;;;;;;5002891;28;20080;-83
2022/09/29 11:13:20;;;;;;;5.88;4.03;;;;;;;;;;4999840;28;20101;-84
2022/09/29 11:15:46;;;;;;;6.20;4.50;;;;;;;;;;5009896;28;20547;-84
2022/09/29 11:18:21;;;;;;;6.75;4.40;;;;;;;;;;5021570;28;20042;-83
2022/09/29 11:20:52;;;;;;;6.63;4.20;;;;;;;;;;5010983;28;20042;-85
2022/09/29 11:23:24;;;;;;;6.10;4.22;;;;;;;;;;5011004;28;20440;-84
2022/09/29 11:26:06;;;;;;;7.13;4.40;;;;;;;;;;5005230;28;20045;-85
2022/09/29 11:28:46;;;;;;;6.53;4.55;;;;;;;;;;5008415;28;20046;-85
2022/09/29 11:31:28;;;;;;;7.15;4.63;;;;;;;;;;5011127;28;20072;-83
2022/09/29 11:34:18;;;;;;;6.05;4.20;;;;;;;;;;5009825;28;20050;-84
2022/09/29 11:36:53;;;;;;;5.78;4.15;;;;;;;;;;5045369;28;20050;-83
2022/09/29 11:39:31;;;;;;;7.32;4.22;;;;;;;;;;5015090;28;20399;-84
2022/09/29 11:42:02;;;;;;;5.63;3.92;;;;;;;;;;5015276;28;20089;-84
2022/09/29 11:45:02;;;;;;;6.00;4.40;;;;;;;;;;5006868;28;20080;-82
2022/09/29 11:47:43;;;;;;;6.30;3.70;;;;;;;;;;5005012;28;20180;-84
2022/09/29 11:50:24;;;;;;;5.05;3.15;;;;;;;;;;4999979;28;20038;-84
2022/09/29 11:52:50;;;;;;;5.63;4.00;;;;;;;;;;5015608;28;20503;-83
2022/09/29 11:55:22;;;;;;;6.05;2.90;;;;;;;;;;5015667;28;20130;-84
2022/09/29 11:58:10;;;;;;;5.65;2.35;;;;;;;;;;5012906;28;20053;-84
2022/09/29 12:00:42;;;;;;;5.68;2.65;;;;;;;;;;5022853;28;20042;-85
2022/09/29 12:03:25;;;;;;;4.70;2.83;;;;;;;;;;5011747;28;20073;-86
2022/09/29 12:06:06;;;;;;;4.93;2.20;;;;;;;;;;5013888;28;20129;-84
2022/09/29 12:08:38;;;;;;;5.32;2.40;;;;;;;;;;5015648;28;20050;-85
2022/09/29 12:11:11;;;;;;;4.15;2.05;;;;;;;;;;5010908;28;20038;-86
2022/09/29 12:13:43;;;;;;;4.57;2.20;;;;;;;;;;5016210;28;20076;-85
2022/09/29 12:16:12;;;;;;;5.50;2.20;;;;;;;;;;5034330;28;20353;-84
2022/09/29 12:18:40;;;;;;;7.28;2.08;;;;;;;;;;5019143;28;20057;-83
2022/09/29 12:21:08;;;;;;;4.07;1.80;;;;;;;;;;5015159;28;20045;-85
2022/09/29 12:23:38;;;;;;;5.57;1.80;;;;;;;;;;5011823;28;20180;-85
2022/09/29 12:26:04;;;;;;;3.28;1.52;;;;;;;;;;5012949;28;20049;-85
2022/09/29 12:28:34;;;;;;;5.85;2.13;;;;;;;;;;5011676;28;20080;-83
2022/09/29 12:31:02;;;;;;;4.63;1.80;;;;;;;;;;5013741;28;20053;-83
2022/09/29 12:33:37;;;;;;;4.57;1.80;;;;;;;;;;5012550;28;20046;-84
2022/09/29 12:36:03;;;;;;;5.80;2.03;;;;;;;;;;5013234;28;20045;-82
2022/09/29 12:38:37;;;;;;;18.17;6.97;;;;;;;;;;5014846;28;20049;-83
2022/09/29 12:41:16;;;;;;;5.55;2.10;;;;;;;;;;5014351;28;20757;-83
2022/09/29 12:43:50;;;;;;;6.53;2.58;;;;;;;;;;5014106;28;20527;-83
2022/09/29 12:46:25;;;;;;;4.57;2.47;;;;;;;;;;5014174;28;20042;-83
2022/09/29 12:48:57;;;;;;;4.50;1.88;;;;;;;;;;5019822;28;20068;-83
2022/09/29 12:51:23;;;;;;;;;;;;;;;;;;5014604;28;20042;-83
2022/09/29 12:54:07;;;;;;;4.80;1.55;;;;;;;;;;5012088;28;19967;-82
2022/09/29 12:56:38;;;;;;;3.65;1.58;;;;;;;;;;5014451;28;20057;-84
2022/09/29 12:59:05;;;;;;;3.83;1.70;;;;;;;;;;5010225;28;20050;-83
2022/09/29 13:01:35;;;;;;;4.65;1.65;;;;;;;;;;5012524;28;20077;-84
2022/09/29 13:04:03;;;;;;;3.78;1.60;;;;;;;;;;5020538;28;20061;-84
2022/09/29 13:06:32;;;;;;;3.97;1.67;;;;;;;;;;5012720;28;20412;-83
2022/09/29 13:09:01;;;;;;;5.22;2.00;;;;;;;;;;5013102;28;20057;-83
2022/09/29 13:11:39;;;;;;;4.10;1.85;;;;;;;;;;5012319;28;20049;-84
2022/09/29 13:14:11;;;;;;;4.60;1.58;;;;;;;;;;5010842;28;20042;-85
2022/09/29 13:16:50;;;;;;;4.63;1.80;;;;;;;;;;5006452;28;20069;-83
2022/09/29 13:19:22;;;;;;;4.38;1.92;;;;;;;;;;5024975;28;20165;-84
2022/09/29 13:22:07;;;;;;;5.22;1.90;;;;;;;;;;5020474;28;20153;-84
2022/09/29 13:24:43;;;;;;;3.60;1.88;;;;;;;;;;5023998;28;20040;-85
2022/09/29 13:27:25;;;;;;;4.93;1.98;;;;;;;;;;5014929;28;20510;-86
2022/09/29 13:30:00;;;;;;;3.83;1.42;;;;;;;;;;4996402;28;20057;-86
2022/09/29 13:32:27;;;;;;;5.45;1.50;;;;;;;;;;5011247;28;20062;-84
2022/09/29 13:34:54;;;;;;;3.22;1.50;;;;;;;;;;5014014;28;20442;-84
2022/09/29 13:37:21;;;;;;;4.22;1.50;;;;;;;;;;5012663;28;20431;-85
2022/09/29 13:39:57;;;;;;;3.85;1.60;;;;;;;;;;5041121;28;20138;-84
2022/09/29 13:42:41;;;;;;;5.50;1.70;;;;;;;;;;5018629;28;20095;-84
2022/09/29 13:45:35;;;;;;;3.40;1.52;;;;;;;;;;5013132;28;20045;-85
2022/09/29 13:48:03;;;;;;;5.63;1.80;;;;;;;;;;5013839;28;20103;-84
2022/09/29 13:50:46;;;;;;;4.15;1.98;;;;;;;;;;5011608;28;20640;-85
2022/09/29 13:53:21;;;;;;;4.30;1.65;;;;;;;;;;5010175;28;20488;-85
2022/09/29 13:55:52;;;;;;;4.55;1.90;;;;;;;;;;5011344;28;20148;-84
2022/09/29 13:58:24;;;;;;;3.58;1.70;;;;;;;;;;5013376;28;20038;-86
2022/09/29 14:00:51;;;;;;;3.78;1.40;;;;;;;;;;5009219;28;20042;-86
2022/09/29 14:03:23;;;;;;;4.70;1.48;;;;;;;;;;5013303;28;20045;-84
2022/09/29 14:05:53;;;;;;;4.13;1.50;;;;;;;;;;5008737;28;20042;-84
2022/09/29 14:08:22;;;;;;;3.63;1.60;;;;;;;;;;5007001;28;20058;-85
2022/09/29 14:10:51;;;;;;;3.65;1.58;;;;;;;;;;5007641;28;20046;-84
2022/09/29 14:13:26;;;;;;;5.20;1.50;;;;;;;;;;5009416;28;20038;-85
2022/09/29 14:16:15;;;;;;;4.57;1.92;;;;;;;;;;5003522;28;20049;-84
2022/09/29 14:18:45;;;;;;;4.93;2.10;;;;;;;;;;5013232;28;20046;-85
2022/09/29 14:21:34;;;;;;;4.32;1.80;;;;;;;;;;5009216;28;20042;-84
2022/09/29 14:24:00;;;;;;;3.97;1.73;;;;;;;;;;5010841;28;20048;-83
2022/09/29 14:26:45;;;;;;;4.22;1.70;;;;;;;;;;5000901;28;20088;-85
2022/09/29 14:29:15;;;;;;;4.35;1.40;;;;;;;;;;5010571;28;20108;-85
2022/09/29 14:31:44;;;;;;;4.60;1.70;;;;;;;;;;5013903;28;20056;-84
2022/09/29 14:34:13;;;;;;;3.92;1.48;;;;;;;;;;5010484;28;20064;-84
2022/09/29 14:36:41;;;;;;;3.95;1.30;;;;;;;;;;5043815;28;20056;-84
2022/09/29 14:39:09;;;;;;;3.35;1.38;;;;;;;;;;5018956;28;20038;-84
2022/09/29 14:41:40;;;;;;;3.00;1.30;;;;;;;;;;5043888;28;20046;-84
2022/09/29 14:44:06;;;;;;;3.40;1.42;;;;;;;;;;5011859;28;20041;-85
2022/09/29 14:52:32;;;;;;;4.20;1.40;;;;;;;;;;5005827;28;20396;-83
2022/09/29 14:55:17;;;;;;;4.57;1.38;;;;;;;;;;5011422;28;20046;-82
2022/09/29 14:57:43;;;;;;;3.35;1.10;;;;;;;;;;5008119;28;20116;-84